Time;durP1;ratioP1;P1;durP2;ratioP2;P2;SDS_P1;SDS_P2;PMS_P1;PMS_P2;Temp;Humidity;BMP_temperature;BMP_pressure;BME280_temperature;BME280_humidity;BME280_pressure;Samples;Min_cycle;Max_cycle;Signal;HPM_P1;HPM_P2
2023/03/12 00:00:38;;;;;;;12.57;6.53;;;6.20;1.00;;;;;;5076559;28;20245;-74
2023/03/12 00:03:03;;;;;;;11.03;5.83;;;6.30;1.00;;;;;;5076823;28;20177;-73
2023/03/12 00:05:29;;;;;;;7.73;5.00;;;6.20;1.00;;;;;;5076530;28;20188;-74
2023/03/12 00:07:58;;;;;;;5.97;4.50;;;6.30;1.00;;;;;;5076771;28;20176;-74
2023/03/12 00:10:25;;;;;;;7.37;4.50;;;6.20;1.00;;;;;;5076903;28;20185;-74
2023/03/12 00:12:50;;;;;;;9.27;4.30;;;6.20;1.00;;;;;;5076517;28;20184;-76
2023/03/12 00:15:16;;;;;;;6.40;4.53;;;6.30;1.00;;;;;;5076113;28;20171;-73
2023/03/12 00:17:42;;;;;;;7.47;4.63;;;6.20;1.00;;;;;;5076347;28;20686;-73
2023/03/12 00:20:08;;;;;;;8.90;4.53;;;6.30;1.00;;;;;;5076397;28;20211;-73
2023/03/12 00:22:34;;;;;;;10.73;4.67;;;6.20;1.00;;;;;;5076232;28;20285;-74
2023/03/12 00:25:00;;;;;;;8.70;4.60;;;6.20;1.00;;;;;;5076291;28;20177;-74
2023/03/12 00:27:26;;;;;;;10.07;5.03;;;6.20;1.00;;;;;;5058313;28;20173;-74
2023/03/12 00:29:52;;;;;;;8.37;4.73;;;6.20;1.00;;;;;;5075944;28;20257;-74
2023/03/12 00:32:19;;;;;;;8.00;4.83;;;6.10;1.00;;;;;;5076299;28;20161;-74
2023/03/12 00:34:53;;;;;;;10.60;5.00;;;6.10;1.00;;;;;;5076184;28;20765;-74
2023/03/12 00:37:20;;;;;;;9.53;5.27;;;6.10;1.00;;;;;;5075958;28;20214;-73
2023/03/12 00:39:45;;;;;;;10.57;5.23;;;6.10;1.00;;;;;;5058098;28;20230;-74
2023/03/12 00:42:11;;;;;;;8.97;5.03;;;6.10;1.00;;;;;;5075948;28;20631;-74
2023/03/12 00:44:37;;;;;;;8.80;4.70;;;6.00;1.00;;;;;;5057920;28;20180;-74
2023/03/12 00:47:03;;;;;;;8.07;5.23;;;6.10;1.00;;;;;;5076021;28;20169;-73
2023/03/12 00:49:28;;;;;;;9.63;5.30;;;6.00;1.00;;;;;;5075918;28;20183;-74
2023/03/12 00:51:54;;;;;;;10.33;4.77;;;6.00;1.00;;;;;;5075991;28;20624;-75
2023/03/12 00:54:20;;;;;;;8.87;4.70;;;5.90;1.00;;;;;;5075675;28;20168;-73
2023/03/12 00:56:46;;;;;;;7.97;5.00;;;5.90;1.00;;;;;;5075211;28;20173;-74
2023/03/12 00:59:15;;;;;;;9.47;5.37;;;5.80;1.00;;;;;;5057620;28;20215;-74
2023/03/12 01:01:41;;;;;;;9.73;5.17;;;5.80;1.00;;;;;;5075761;28;20173;-75
2023/03/12 01:04:08;;;;;;;9.70;4.80;;;5.90;1.00;;;;;;5057785;28;20628;-74
2023/03/12 01:06:33;;;;;;;13.23;4.53;;;5.80;1.00;;;;;;5075452;28;20531;-74
2023/03/12 01:09:01;;;;;;;6.37;4.50;;;5.70;1.00;;;;;;5075558;28;20168;-74
2023/03/12 01:11:27;;;;;;;9.70;5.37;;;5.60;1.00;;;;;;5075661;28;20165;-74
2023/03/12 01:13:53;;;;;;;5.83;4.60;;;5.50;1.00;;;;;;5075021;28;20239;-74
2023/03/12 01:16:18;;;;;;;7.70;4.70;;;5.50;6.20;;;;;;5075646;28;20172;-73
2023/03/12 01:18:44;;;;;;;9.07;4.97;;;5.50;11.10;;;;;;5075415;28;20196;-74
2023/03/12 01:21:10;;;;;;;5.70;4.10;;;5.50;18.60;;;;;;5075307;28;20173;-73
2023/03/12 01:23:36;;;;;;;5.03;4.53;;;5.50;25.50;;;;;;5075319;28;20192;-74
2023/03/12 01:26:02;;;;;;;7.87;4.20;;;5.40;29.20;;;;;;5075219;28;20524;-73
2023/03/12 01:28:28;;;;;;;7.13;4.10;;;5.40;31.80;;;;;;5075016;28;20176;-73
2023/03/12 01:30:53;;;;;;;8.50;3.73;;;5.40;35.80;;;;;;5075318;28;20168;-72
2023/03/12 01:33:21;;;;;;;5.90;3.83;;;5.30;38.70;;;;;;5075198;28;20230;-74
2023/03/12 01:35:47;;;;;;;4.87;3.60;;;5.20;43.30;;;;;;5075108;28;20656;-74
2023/03/12 01:38:14;;;;;;;6.17;3.60;;;5.20;47.60;;;;;;5075048;28;20196;-73
2023/03/12 01:40:41;;;;;;;4.67;3.50;;;5.20;50.50;;;;;;5075016;28;20247;-73
2023/03/12 01:43:32;;;;;;;6.27;3.40;;;5.20;55.20;;;;;;5073677;28;20207;-73
2023/03/12 01:46:06;;;;;;;4.90;3.20;;;5.10;60.10;;;;;;5074955;28;20180;-73
2023/03/12 01:48:37;;;;;;;5.40;3.60;;;5.10;60.60;;;;;;5075009;28;20631;-74
2023/03/12 01:51:05;;;;;;;6.80;3.60;;;5.10;62.00;;;;;;5057524;28;20177;-74
2023/03/12 01:53:31;;;;;;;4.83;3.57;;;5.10;62.60;;;;;;5074549;28;20180;-73
2023/03/12 01:55:59;;;;;;;3.90;3.27;;;5.00;63.20;;;;;;5074405;28;20165;-73
2023/03/12 01:58:27;;;;;;;5.40;3.53;;;5.00;67.30;;;;;;5074604;28;20192;-73
2023/03/12 02:00:54;;;;;;;5.90;4.07;;;5.00;70.10;;;;;;5056587;28;20255;-73
2023/03/12 02:03:25;;;;;;;7.70;3.63;;;4.90;74.00;;;;;;5074461;28;20169;-74
2023/03/12 02:06:05;;;;;;;7.93;3.33;;;4.90;75.20;;;;;;5074325;28;20236;-72
2023/03/12 02:08:36;;;;;;;6.43;3.17;;;5.00;77.30;;;;;;5073548;28;20165;-74
2023/03/12 02:11:02;;;;;;;7.20;3.37;;;5.10;74.40;;;;;;5073757;28;20189;-73
2023/03/12 02:13:28;;;;;;;8.83;3.83;;;5.10;72.00;;;;;;5074223;28;20212;-72
2023/03/12 02:15:54;;;;;;;4.53;3.23;;;5.00;73.70;;;;;;5074140;28;20628;-73
2023/03/12 02:18:22;;;;;;;3.53;3.23;;;5.10;75.80;;;;;;5056186;28;20223;-73
2023/03/12 02:21:12;;;;;;;4.47;3.50;;;5.00;75.60;;;;;;5074296;28;20600;-73
2023/03/12 02:23:59;;;;;;;4.20;2.97;;;4.90;77.80;;;;;;5056140;28;20218;-74
2023/03/12 02:26:36;;;;;;;4.93;3.60;;;4.90;78.20;;;;;;5073519;28;20179;-73
2023/03/12 02:29:02;;;;;;;9.03;3.97;;;5.00;82.00;;;;;;5074007;28;20221;-73
2023/03/12 02:31:39;;;;;;;6.40;3.70;;;4.90;86.20;;;;;;5073150;28;20180;-74
2023/03/12 02:34:08;;;;;;;5.80;3.30;;;4.90;88.10;;;;;;5074054;28;20244;-73
2023/03/12 02:36:34;;;;;;;5.17;3.30;;;4.90;88.20;;;;;;5073977;28;20172;-73
2023/03/12 02:39:00;;;;;;;5.60;3.20;;;5.00;88.60;;;;;;5073489;28;20219;-74
2023/03/12 02:41:28;;;;;;;4.90;3.33;;;5.00;82.60;;;;;;5073717;28;20169;-74
2023/03/12 02:44:02;;;;;;;8.20;3.53;;;5.00;83.50;;;;;;5073641;28;20536;-73
2023/03/12 02:46:32;;;;;;;7.90;3.60;;;5.00;86.20;;;;;;5073784;28;20168;-74
2023/03/12 02:48:58;;;;;;;6.13;3.37;;;5.00;86.80;;;;;;5073530;28;20160;-73
2023/03/12 02:51:24;;;;;;;5.90;3.37;;;5.00;83.80;;;;;;5073842;28;20179;-73
2023/03/12 02:53:53;;;;;;;6.07;3.10;;;4.90;80.50;;;;;;5073361;28;20192;-74
2023/03/12 02:56:21;;;;;;;5.50;3.40;;;4.90;82.50;;;;;;5073534;28;20271;-73
2023/03/12 02:58:46;;;;;;;5.90;3.47;;;5.10;82.70;;;;;;5073760;28;20212;-72
2023/03/12 03:01:12;;;;;;;7.47;3.30;;;5.00;82.00;;;;;;5073608;28;20177;-74
2023/03/12 03:03:38;;;;;;;6.13;3.30;;;5.00;81.20;;;;;;5073529;28;20177;-73
2023/03/12 03:06:04;;;;;;;6.20;3.30;;;4.90;83.40;;;;;;5073529;28;20164;-73
2023/03/12 03:08:29;;;;;;;4.10;3.33;;;5.00;85.90;;;;;;5072937;28;20254;-74
2023/03/12 03:10:55;;;;;;;9.40;3.53;;;5.10;85.60;;;;;;5073313;28;20717;-72
2023/03/12 03:13:20;;;;;;;6.23;3.37;;;5.10;82.30;;;;;;5072994;28;20223;-73
2023/03/12 03:15:49;;;;;;;5.43;3.03;;;5.20;79.00;;;;;;5072413;28;20185;-72
2023/03/12 03:18:14;;;;;;;5.07;3.40;;;5.10;78.40;;;;;;5073137;28;20180;-72
2023/03/12 03:20:43;;;;;;;6.97;3.13;;;5.10;79.00;;;;;;5072905;28;20180;-73
2023/03/12 03:23:09;;;;;;;5.87;3.43;;;5.20;79.80;;;;;;5072738;28;20169;-74
2023/03/12 03:25:35;;;;;;;5.23;3.40;;;5.20;79.30;;;;;;5055131;28;20184;-73
2023/03/12 03:28:06;;;;;;;7.40;3.60;;;5.30;79.10;;;;;;5073052;28;20168;-73
2023/03/12 03:30:32;;;;;;;8.80;4.03;;;5.30;76.80;;;;;;5073089;28;20172;-72
2023/03/12 03:32:58;;;;;;;8.73;4.30;;;5.30;76.80;;;;;;5072926;28;20173;-74
2023/03/12 03:35:24;;;;;;;5.70;3.40;;;5.30;77.40;;;;;;5072969;28;20194;-73
2023/03/12 03:37:49;;;;;;;6.40;3.60;;;5.30;78.80;;;;;;5072831;28;20177;-73
2023/03/12 03:40:15;;;;;;;8.07;3.40;;;5.30;83.90;;;;;;5072748;28;20208;-72
2023/03/12 03:42:40;;;;;;;5.63;4.10;;;5.40;86.10;;;;;;5072858;28;20612;-74
2023/03/12 03:45:07;;;;;;;4.93;3.80;;;5.50;82.10;;;;;;5072928;28;20176;-73
2023/03/12 03:47:32;;;;;;;6.63;3.50;;;5.50;79.80;;;;;;5072860;28;20196;-74
2023/03/12 03:49:58;;;;;;;6.80;3.90;;;5.50;80.40;;;;;;5072977;28;20616;-73
2023/03/12 03:52:24;;;;;;;4.90;3.60;;;5.40;82.70;;;;;;5072758;28;20187;-73
2023/03/12 03:54:52;;;;;;;6.00;3.57;;;5.40;86.10;;;;;;5072527;28;20173;-73
2023/03/12 03:57:18;;;;;;;6.53;4.13;;;5.40;86.70;;;;;;5072683;28;20168;-73
2023/03/12 03:59:46;;;;;;;10.13;4.40;;;5.30;90.00;;;;;;5072755;28;20208;-73
2023/03/12 04:02:12;;;;;;;6.30;4.47;;;5.40;91.50;;;;;;5072904;28;20157;-73
2023/03/12 04:04:37;;;;;;;5.50;4.17;;;5.50;92.60;;;;;;5072701;28;20176;-73
2023/03/12 04:07:03;;;;;;;9.73;4.60;;;5.60;91.30;;;;;;5072300;28;20165;-72
2023/03/12 04:09:32;;;;;;;7.53;4.20;;;5.60;90.40;;;;;;5072496;28;20195;-73
2023/03/12 04:11:57;;;;;;;7.03;4.20;;;5.80;86.60;;;;;;5072557;28;20207;-74
2023/03/12 04:14:23;;;;;;;4.77;4.10;;;5.80;85.90;;;;;;5072061;28;20575;-73
2023/03/12 04:16:48;;;;;;;5.93;4.23;;;5.90;85.40;;;;;;5072807;28;20169;-73
2023/03/12 04:19:14;;;;;;;8.27;4.30;;;6.00;85.00;;;;;;5072112;28;20261;-72
2023/03/12 04:21:40;;;;;;;7.10;4.53;;;6.00;86.20;;;;;;5072069;28;20165;-73
2023/03/12 04:24:13;;;;;;;7.23;4.43;;;6.00;90.80;;;;;;5072345;28;20256;-73
2023/03/12 04:26:39;;;;;;;4.93;4.43;;;5.90;91.60;;;;;;5054373;28;20659;-73
2023/03/12 04:29:04;;;;;;;7.90;4.43;;;6.00;93.60;;;;;;5072592;28;20200;-73
2023/03/12 04:31:30;;;;;;;7.10;4.63;;;6.10;95.60;;;;;;5072445;28;20581;-72
2023/03/12 04:33:56;;;;;;;10.97;5.03;;;6.00;95.60;;;;;;5058219;28;20226;-73
2023/03/12 04:36:30;;;;;;;10.77;5.10;;;6.10;96.10;;;;;;5057747;28;20236;-73
2023/03/12 04:38:56;;;;;;;7.10;4.40;;;6.00;94.70;;;;;;5057848;28;20199;-72
2023/03/12 04:41:22;;;;;;;10.17;5.40;;;6.00;98.90;;;;;;5075943;28;20522;-73
2023/03/12 04:43:47;;;;;;;6.33;4.93;;;6.10;99.90;;;;;;5076104;28;20184;-73
2023/03/12 04:46:13;;;;;;;8.00;5.17;;;6.10;99.90;;;;;;5075781;28;20252;-73
2023/03/12 04:48:38;;;;;;;8.30;5.37;;;6.00;99.90;;;;;;5075615;28;20204;-73
2023/03/12 04:51:04;;;;;;;9.93;5.80;;;6.10;99.90;;;;;;5075466;28;20169;-72
2023/03/12 04:53:33;;;;;;;10.93;5.37;;;6.10;99.90;;;;;;5075725;28;20180;-73
2023/03/12 04:55:58;;;;;;;10.83;5.90;;;6.10;99.90;;;;;;5075542;28;20224;-73
2023/03/12 04:58:24;;;;;;;8.77;5.50;;;6.10;99.90;;;;;;5075322;28;20191;-73
2023/03/12 05:00:50;;;;;;;8.83;5.83;;;6.10;99.90;;;;;;5075721;28;20652;-73
2023/03/12 05:03:16;;;;;;;11.63;5.63;;;6.30;99.90;;;;;;5075554;28;20217;-72
2023/03/12 05:05:42;;;;;;;10.57;5.70;;;6.20;99.90;;;;;;5075023;28;20171;-73
2023/03/12 05:08:08;;;;;;;8.20;5.70;;;6.10;99.90;;;;;;5075307;28;20161;-73
2023/03/12 05:10:36;;;;;;;11.43;6.00;;;6.10;99.90;;;;;;5075487;28;20679;-72
2023/03/12 05:13:04;;;;;;;9.97;6.00;;;6.00;99.90;;;;;;5074656;28;20165;-72
2023/03/12 05:15:35;;;;;;;9.80;6.90;;;6.10;99.90;;;;;;5075465;28;20177;-72
2023/03/12 05:18:01;;;;;;;10.23;6.10;;;6.10;99.90;;;;;;5057247;28;20173;-72
2023/03/12 05:20:29;;;;;;;8.23;6.47;;;6.10;99.90;;;;;;5074573;28;20682;-73
2023/03/12 05:22:58;;;;;;;14.83;6.67;;;6.10;99.90;;;;;;5057197;28;20268;-73
2023/03/12 05:25:23;;;;;;;9.50;6.47;;;6.10;99.90;;;;;;5075246;28;20169;-73
2023/03/12 05:27:49;;;;;;;8.07;6.63;;;6.20;99.90;;;;;;5075053;28;20570;-73
2023/03/12 05:30:15;;;;;;;11.07;6.77;;;6.20;99.90;;;;;;5075412;28;20508;-73
2023/03/12 05:32:40;;;;;;;10.53;6.97;;;6.10;99.90;;;;;;5075178;28;20175;-73
2023/03/12 05:35:09;;;;;;;10.53;7.40;;;6.20;99.90;;;;;;5074435;28;20214;-73
2023/03/12 05:37:35;;;;;;;8.17;7.30;;;6.20;99.90;;;;;;5075171;28;20168;-73
2023/03/12 05:40:00;;;;;;;12.13;7.83;;;6.30;99.90;;;;;;5074666;28;20235;-73
2023/03/12 05:42:26;;;;;;;11.07;7.37;;;6.30;99.90;;;;;;5074696;28;20165;-73
2023/03/12 05:44:52;;;;;;;9.73;7.80;;;6.40;99.90;;;;;;5074194;28;20247;-73
2023/03/12 05:47:17;;;;;;;9.93;7.70;;;6.50;99.90;;;;;;5074823;28;20172;-72
2023/03/12 05:49:46;;;;;;;12.60;8.10;;;6.50;99.90;;;;;;5074242;28;20179;-72
2023/03/12 05:52:12;;;;;;;9.13;8.17;;;6.60;99.90;;;;;;5074606;28;20620;-73
2023/03/12 05:54:37;;;;;;;10.97;7.47;;;6.50;99.90;;;;;;5074510;28;20243;-73
2023/03/12 05:57:06;;;;;;;13.43;8.37;;;6.50;99.90;;;;;;5074417;28;20252;-73
2023/03/12 05:59:31;;;;;;;10.10;8.83;;;6.60;99.90;;;;;;5074226;28;20737;-74
2023/03/12 06:01:57;;;;;;;15.43;9.50;;;6.60;99.90;;;;;;5074122;28;20185;-73
2023/03/12 06:04:23;;;;;;;11.40;8.83;;;6.60;99.90;;;;;;5074408;28;20165;-74
2023/03/12 06:06:48;;;;;;;12.60;9.00;;;6.70;99.90;;;;;;5074371;28;20169;-74
2023/03/12 06:09:14;;;;;;;13.63;9.43;;;6.80;99.90;;;;;;5074227;28;20622;-72
2023/03/12 06:11:39;;;;;;;13.50;10.13;;;6.70;99.90;;;;;;5074051;28;20169;-72
2023/03/12 06:14:05;;;;;;;15.80;10.70;;;6.80;99.90;;;;;;5052373;28;20229;-73
2023/03/12 06:16:31;;;;;;;13.10;10.53;;;6.90;99.90;;;;;;5053923;28;20609;-74
2023/03/12 06:18:59;;;;;;;11.83;10.50;;;6.90;99.90;;;;;;5052667;28;20556;-74
2023/03/12 06:21:27;;;;;;;14.37;10.50;;;6.90;99.90;;;;;;5052369;28;20541;-73
2023/03/12 06:23:53;;;;;;;12.47;10.00;;;6.90;99.90;;;;;;5054109;28;20165;-73
2023/03/12 06:26:20;;;;;;;14.40;11.07;;;7.00;99.90;;;;;;5053855;28;20521;-73
2023/03/12 06:28:47;;;;;;;15.07;11.07;;;7.10;99.90;;;;;;5053760;28;20168;-72
2023/03/12 06:31:13;;;;;;;17.50;11.37;;;7.10;99.90;;;;;;5053723;28;20173;-73
2023/03/12 06:33:39;;;;;;;12.77;11.00;;;7.10;99.90;;;;;;5053851;28;20622;-73
2023/03/12 06:36:07;;;;;;;16.03;11.30;;;7.10;99.90;;;;;;5053700;28;20187;-73
2023/03/12 06:38:34;;;;;;;21.37;12.40;;;7.10;99.90;;;;;;5053682;28;20240;-73
2023/03/12 06:41:06;;;;;;;17.07;12.00;;;7.10;99.90;;;;;;5053261;28;20173;-72
2023/03/12 06:43:34;;;;;;;15.10;11.80;;;7.10;99.90;;;;;;5053670;28;20268;-73
2023/03/12 06:46:01;;;;;;;14.27;12.13;;;7.20;99.90;;;;;;5052846;28;20216;-73
2023/03/12 06:48:28;;;;;;;15.27;12.07;;;7.20;99.90;;;;;;5053625;28;20181;-73
2023/03/12 06:50:54;;;;;;;16.70;11.67;;;7.40;99.90;;;;;;5053151;28;20179;-73
2023/03/12 06:53:19;;;;;;;15.10;11.53;;;7.30;99.90;;;;;;5053275;28;20177;-71
2023/03/12 06:55:48;;;;;;;16.43;12.53;;;7.40;99.90;;;;;;5052796;28;20184;-73
2023/03/12 06:58:13;;;;;;;17.30;12.47;;;7.50;99.90;;;;;;5053395;28;20191;-73
2023/03/12 07:00:39;;;;;;;17.27;12.17;;;7.50;99.90;;;;;;5051203;28;20275;-73
2023/03/12 07:03:05;;;;;;;19.47;13.20;;;7.60;99.90;;;;;;5053239;28;20219;-73
2023/03/12 07:05:30;;;;;;;17.37;12.70;;;7.60;99.90;;;;;;5053221;28;20173;-73
2023/03/12 07:07:56;;;;;;;15.17;12.00;;;7.60;99.90;;;;;;5053173;28;20530;-73
2023/03/12 07:10:22;;;;;;;17.90;12.50;;;7.60;99.90;;;;;;5053177;28;20196;-74
2023/03/12 07:12:48;;;;;;;15.10;12.93;;;7.80;99.90;;;;;;5053436;28;20178;-72
2023/03/12 07:15:14;;;;;;;15.70;12.30;;;7.80;99.90;;;;;;5071468;28;20223;-71
2023/03/12 07:17:40;;;;;;;15.97;12.43;;;7.90;99.90;;;;;;5072831;28;20192;-72
2023/03/12 07:20:06;;;;;;;18.37;13.07;;;8.00;99.90;;;;;;5073086;28;20683;-72
2023/03/12 07:22:31;;;;;;;16.83;12.50;;;8.00;99.90;;;;;;5072559;28;20199;-72
2023/03/12 07:24:57;;;;;;;17.33;13.07;;;8.00;99.90;;;;;;5072838;28;20614;-72
2023/03/12 07:27:22;;;;;;;18.27;13.00;;;8.10;99.90;;;;;;5072594;28;20175;-72
2023/03/12 07:29:48;;;;;;;19.83;13.37;;;8.10;99.90;;;;;;5072296;28;20168;-72
2023/03/12 07:32:14;;;;;;;21.53;13.10;;;8.10;99.90;;;;;;5054874;28;20267;-73
2023/03/12 07:34:39;;;;;;;17.80;13.13;;;8.20;99.90;;;;;;5072406;28;20234;-72
2023/03/12 07:37:05;;;;;;;20.10;13.53;;;8.20;99.90;;;;;;5054855;28;20178;-73
2023/03/12 07:39:31;;;;;;;20.33;13.73;;;8.30;99.90;;;;;;5054672;28;20687;-72
2023/03/12 07:41:56;;;;;;;23.43;12.80;;;8.30;99.90;;;;;;5072413;28;20172;-72
2023/03/12 07:44:25;;;;;;;23.23;12.63;;;8.40;99.90;;;;;;5071994;28;20511;-72
2023/03/12 07:46:51;;;;;;;22.53;13.30;;;8.60;99.90;;;;;;5054799;28;20172;-71
2023/03/12 07:49:23;;;;;;;25.50;13.60;;;8.60;99.90;;;;;;5072403;28;20322;-72
2023/03/12 07:51:51;;;;;;;26.77;13.43;;;8.70;99.90;;;;;;5072297;28;20624;-72
2023/03/12 07:54:20;;;;;;;25.97;14.47;;;8.80;99.90;;;;;;5072566;28;20180;-73
2023/03/12 07:56:47;;;;;;;31.67;15.07;;;8.80;99.90;;;;;;5054053;28;20176;-73
2023/03/12 07:59:13;;;;;;;44.90;15.87;;;8.90;99.90;;;;;;5072271;28;20196;-72
2023/03/12 08:01:39;;;;;;;40.70;15.60;;;9.00;99.90;;;;;;5054558;28;20173;-72
2023/03/12 08:04:04;;;;;;;34.77;15.50;;;9.00;99.90;;;;;;5072317;28;20255;-71
2023/03/12 08:06:30;;;;;;;36.63;15.43;;;9.10;99.90;;;;;;5072587;28;20554;-72
2023/03/12 08:08:55;;;;;;;39.07;14.87;;;9.10;99.90;;;;;;5076284;28;20169;-72
2023/03/12 08:11:21;;;;;;;50.57;15.57;;;9.30;99.90;;;;;;5058354;28;20267;-72
2023/03/12 08:13:49;;;;;;;52.57;16.47;;;9.20;99.90;;;;;;5075410;28;20227;-73
2023/03/12 08:16:15;;;;;;;47.80;16.23;;;9.20;99.90;;;;;;5076556;28;20180;-72
2023/03/12 08:18:41;;;;;;;46.57;16.37;;;9.30;99.90;;;;;;5076279;28;20651;-71
2023/03/12 08:21:07;;;;;;;46.77;15.60;;;9.40;99.90;;;;;;5075759;28;20168;-71
2023/03/12 08:23:33;;;;;;;47.43;16.13;;;9.40;99.90;;;;;;5075862;28;20586;-72
2023/03/12 08:25:58;;;;;;;46.03;16.47;;;9.50;99.90;;;;;;5076039;28;20207;-72
2023/03/12 08:28:33;;;;;;;41.63;15.30;;;9.50;99.90;;;;;;5075195;28;20172;-72
2023/03/12 08:30:59;;;;;;;48.53;16.17;;;9.60;99.90;;;;;;5076217;28;20168;-73
2023/03/12 08:33:28;;;;;;;47.90;14.83;;;9.80;99.90;;;;;;5075878;28;20177;-73
2023/03/12 08:35:53;;;;;;;45.43;15.23;;;9.90;99.90;;;;;;5075614;28;20204;-72
2023/03/12 08:38:20;;;;;;;44.47;15.47;;;10.00;99.90;;;;;;5074637;28;20212;-72
2023/03/12 08:40:45;;;;;;;52.83;15.87;;;10.20;99.90;;;;;;5075494;28;20624;-72
2023/03/12 08:43:11;;;;;;;43.17;14.80;;;10.40;99.90;;;;;;5075003;28;20179;-72
2023/03/12 08:45:37;;;;;;;44.70;14.30;;;10.60;99.90;;;;;;5075771;28;20592;-72
2023/03/12 08:48:06;;;;;;;37.67;14.03;;;10.80;99.90;;;;;;5074911;28;20173;-71
2023/03/12 08:50:32;;;;;;;51.80;14.40;;;11.00;99.90;;;;;;5075357;28;20164;-72
2023/03/12 08:52:58;;;;;;;54.80;14.73;;;11.20;99.90;;;;;;5075396;28;20539;-73
2023/03/12 08:55:28;;;;;;;44.33;12.93;;;11.20;99.90;;;;;;5074829;28;20183;-73
2023/03/12 08:57:57;;;;;;;48.87;13.47;;;11.30;99.90;;;;;;5074584;28;20164;-71
2023/03/12 09:00:23;;;;;;;46.17;12.90;;;11.50;99.90;;;;;;5074950;28;20215;-73
2023/03/12 09:02:50;;;;;;;48.07;12.00;;;11.60;99.90;;;;;;5075228;28;20218;-73
2023/03/12 09:05:16;;;;;;;40.40;10.60;;;11.60;99.90;;;;;;5075202;28;20169;-72
2023/03/12 09:07:42;;;;;;;38.17;11.03;;;11.80;99.90;;;;;;5074955;28;20164;-73
2023/03/12 09:10:13;;;;;;;43.60;10.50;;;11.90;99.90;;;;;;5075182;28;20646;-73
2023/03/12 09:12:43;;;;;;;43.80;10.40;;;12.10;99.90;;;;;;5074910;28;20202;-72
2023/03/12 09:15:09;;;;;;;42.87;10.93;;;12.10;99.90;;;;;;5074419;28;20258;-73
2023/03/12 09:17:35;;;;;;;41.57;9.70;;;12.20;99.90;;;;;;5074544;28;20164;-73
2023/03/12 09:20:04;;;;;;;40.30;9.83;;;12.50;98.70;;;;;;5075075;28;20247;-73
2023/03/12 09:22:31;;;;;;;39.37;9.17;;;12.50;92.60;;;;;;5075171;28;20191;-73
2023/03/12 09:24:57;;;;;;;32.40;9.23;;;12.50;86.00;;;;;;5074431;28;20177;-72
2023/03/12 09:27:23;;;;;;;39.73;8.93;;;12.60;93.90;;;;;;5056637;28;20623;-72
2023/03/12 09:29:50;;;;;;;40.67;9.37;;;12.90;72.20;;;;;;5074744;28;20666;-74
2023/03/12 09:32:16;;;;;;;37.07;8.77;;;12.90;72.10;;;;;;5074865;28;20638;-74
2023/03/12 09:34:41;;;;;;;27.90;7.83;;;13.50;76.00;;;;;;5074687;28;20205;-74
2023/03/12 09:37:07;;;;;;;27.83;7.27;;;14.00;36.70;;;;;;5056984;28;20176;-74
2023/03/12 09:39:32;;;;;;;33.20;7.50;;;14.20;30.50;;;;;;5074110;28;20215;-74
2023/03/12 09:41:58;;;;;;;33.97;9.07;;;14.50;20.30;;;;;;5074641;28;20571;-75
2023/03/12 09:44:41;;;;;;;39.77;8.23;;;14.90;10.00;;;;;;5074206;28;20179;-74
2023/03/12 09:47:31;;;;;;;34.43;8.50;;;14.80;1.00;;;;;;5074515;28;20167;-74
2023/03/12 09:50:15;;;;;;;28.27;8.40;;;14.70;7.40;;;;;;5055910;28;20180;-74
2023/03/12 09:53:03;;;;;;;33.93;8.30;;;15.20;1.00;;;;;;5056176;28;20208;-73
2023/03/12 09:55:36;;;;;;;37.67;7.67;;;15.20;1.00;;;;;;5026628;28;20176;-74
2023/03/12 09:58:18;;;;;;;34.70;7.77;;;15.10;1.00;;;;;;5074077;28;20208;-73
2023/03/12 10:00:45;;;;;;;34.17;8.23;;;15.10;1.00;;;;;;5074185;28;20275;-73
2023/03/12 10:03:37;;;;;;;39.10;8.80;;;15.30;1.00;;;;;;5074042;28;20226;-74
2023/03/12 10:06:19;;;;;;;30.70;7.80;;;15.20;1.00;;;;;;5073940;28;20180;-73
2023/03/12 10:09:09;;;;;;;36.17;7.57;;;15.00;1.00;;;;;;5054371;28;20177;-75
2023/03/12 10:11:59;;;;;;;37.00;9.47;;;14.90;1.00;;;;;;5073707;28;20169;-74
2023/03/12 10:14:41;;;;;;;40.03;8.47;;;14.50;1.00;;;;;;5073830;28;20303;-75
2023/03/12 10:17:13;;;;;;;37.00;9.33;;;14.50;4.00;;;;;;5073991;28;20160;-75
2023/03/12 10:19:53;;;;;;;32.67;8.77;;;14.10;12.10;;;;;;5073945;28;20257;-73
2023/03/12 10:22:38;;;;;;;29.93;8.33;;;13.80;19.60;;;;;;5073486;28;20164;-74
2023/03/12 10:25:12;;;;;;;41.13;8.63;;;13.70;29.40;;;;;;5055120;28;20172;-74
2023/03/12 10:27:39;;;;;;;37.27;8.53;;;13.90;23.40;;;;;;5055609;28;20176;-74
2023/03/12 10:30:19;;;;;;;35.40;8.03;;;14.00;16.50;;;;;;5073003;28;20168;-72
2023/03/12 10:32:49;;;;;;;33.33;8.33;;;13.90;14.20;;;;;;5074026;28;20164;-73
2023/03/12 10:35:23;;;;;;;45.17;8.63;;;14.30;1.50;;;;;;5055151;28;20175;-75
2023/03/12 10:38:02;;;;;;;33.67;8.40;;;14.80;1.00;;;;;;5073669;28;20238;-73
2023/03/12 10:40:33;;;;;;;27.33;8.17;;;15.20;1.00;;;;;;5073056;28;20224;-74
2023/03/12 10:43:00;;;;;;;39.33;8.55;;;15.40;1.00;;;;;;5073779;28;20169;-74
2023/03/12 10:45:48;;;;;;;33.85;7.97;;;15.80;1.00;;;;;;5072886;28;20173;-74
2023/03/12 10:48:19;;;;;;;31.53;8.27;;;15.60;1.00;;;;;;5072781;28;20165;-74
2023/03/12 10:51:02;;;;;;;32.80;8.97;;;15.50;1.00;;;;;;5073223;28;20168;-73
2023/03/12 10:53:31;;;;;;;32.97;8.30;;;15.30;1.00;;;;;;5072029;28;20604;-75
2023/03/12 10:56:06;;;;;;;37.33;8.73;;;15.40;1.00;;;;;;5072996;28;20192;-73
2023/03/12 10:58:50;;;;;;;35.97;8.33;;;15.30;1.00;;;;;;5073365;28;20182;-73
2023/03/12 11:01:30;;;;;;;28.07;8.80;;;15.40;1.00;;;;;;5072607;28;20176;-74
2023/03/12 11:04:17;;;;;;;32.43;9.30;;;15.40;1.00;;;;;;5072664;28;20164;-73
2023/03/12 11:07:01;;;;;;;37.13;8.37;;;15.30;1.00;;;;;;5072896;28;20180;-74
2023/03/12 11:09:29;;;;;;;40.43;8.23;;;15.10;1.00;;;;;;5071913;28;20196;-75
2023/03/12 11:12:01;;;;;;;35.20;11.57;;;14.80;1.00;;;;;;5054853;28;20169;-73
2023/03/12 11:14:29;;;;;;;37.13;9.80;;;14.50;1.00;;;;;;5072823;28;20687;-73
2023/03/12 11:16:55;;;;;;;35.40;8.50;;;14.50;1.00;;;;;;5072872;28;20232;-73
2023/03/12 11:19:42;;;;;;;32.03;10.10;;;14.40;1.70;;;;;;5072123;28;20232;-74
2023/03/12 11:22:10;;;;;;;36.57;8.97;;;14.20;5.50;;;;;;5072249;28;20160;-74
2023/03/12 11:24:59;;;;;;;38.60;9.30;;;14.40;8.20;;;;;;5072683;28;20165;-74
2023/03/12 11:27:48;;;;;;;36.13;12.87;;;14.50;1.00;;;;;;5072637;28;20207;-73
2023/03/12 11:30:17;;;;;;;34.67;9.63;;;14.40;1.00;;;;;;5072769;28;20180;-73
2023/03/12 11:32:45;;;;;;;42.23;12.30;;;14.30;2.50;;;;;;5073053;28;20165;-74
2023/03/12 11:35:13;;;;;;;34.47;10.10;;;14.00;6.90;;;;;;5072624;28;20168;-73
2023/03/12 11:38:17;;;;;;;36.20;10.40;;;14.00;12.10;;;;;;5071998;28;20207;-73
2023/03/12 11:40:55;;;;;;;37.43;9.90;;;14.10;11.50;;;;;;5068618;28;20277;-73
2023/03/12 11:43:54;;;;;;;30.93;9.73;;;14.60;6.30;;;;;;5079341;28;20213;-72
2023/03/12 11:46:49;;;;;;;43.27;10.30;;;15.00;1.00;;;;;;5079410;28;20176;-74
2023/03/12 11:49:25;;;;;;;46.50;17.13;;;14.80;1.00;;;;;;5078696;28;20161;-73
2023/03/12 11:52:30;;;;;;;48.03;14.33;;;14.70;1.00;;;;;;5078665;28;20229;-74
2023/03/12 11:55:06;;;;;;;39.87;10.23;;;14.60;1.00;;;;;;5078971;28;20168;-74
2023/03/12 11:57:52;;;;;;;39.33;9.73;;;14.40;1.00;;;;;;5078995;28;20168;-74
2023/03/12 12:00:36;;;;;;;32.87;9.83;;;14.60;1.00;;;;;;5078551;28;20678;-73
2023/03/12 12:03:21;;;;;;;39.90;10.30;;;14.90;1.00;;;;;;5079213;28;20157;-74
2023/03/12 12:06:07;;;;;;;30.67;9.03;;;15.00;1.00;;;;;;5078379;28;20628;-74
2023/03/12 12:09:01;;;;;;;33.97;9.20;;;15.00;1.00;;;;;;5079179;28;20700;-74
2023/03/12 12:11:55;;;;;;;34.67;8.90;;;14.80;1.00;;;;;;5078621;28;20160;-74
2023/03/12 12:14:54;;;;;;;32.33;8.70;;;14.30;1.00;;;;;;5078732;28;20226;-73
2023/03/12 12:17:29;;;;;;;33.67;8.53;;;14.00;1.00;;;;;;5046599;28;20539;-74
2023/03/12 12:20:20;;;;;;;33.83;8.17;;;13.70;1.00;;;;;;5078181;28;20217;-73
2023/03/12 12:22:52;;;;;;;37.20;9.90;;;13.90;1.00;;;;;;5078657;28;20161;-73
2023/03/12 12:25:27;;;;;;;36.53;8.37;;;14.40;1.00;;;;;;5078786;28;20628;-73
2023/03/12 12:27:52;;;;;;;36.93;8.00;;;14.70;1.00;;;;;;5078545;28;20217;-73
2023/03/12 12:30:30;;;;;;;33.70;8.50;;;15.10;1.00;;;;;;5078425;28;20635;-73
2023/03/12 12:33:23;;;;;;;63.00;28.93;;;15.30;1.00;;;;;;5079087;28;20168;-74
2023/03/12 12:35:50;;;;;;;30.77;8.30;;;15.20;1.00;;;;;;5078337;28;20249;-74
2023/03/12 12:38:36;;;;;;;30.40;8.37;;;15.30;1.00;;;;;;5078340;28;20156;-73
2023/03/12 12:41:07;;;;;;;35.83;12.60;;;15.50;1.00;;;;;;5079082;28;20184;-74
2023/03/12 12:43:49;;;;;;;28.27;7.80;;;15.50;1.00;;;;;;5078784;28;20165;-74
2023/03/12 12:46:25;;;;;;;29.67;9.73;;;15.30;1.00;;;;;;5078413;28;20165;-73
2023/03/12 12:48:54;;;;;;;25.97;6.43;;;15.10;1.00;;;;;;5059854;28;20265;-74
2023/03/12 12:51:24;;;;;;;32.10;7.27;;;14.70;1.00;;;;;;5078554;28;20229;-74
2023/03/12 12:54:27;;;;;;;24.83;7.50;;;14.60;1.00;;;;;;5075293;28;20635;-72
2023/03/12 12:57:02;;;;;;;26.63;6.87;;;14.90;1.00;;;;;;5075114;28;20650;-75
2023/03/12 12:59:34;;;;;;;29.77;7.20;;;15.00;1.00;;;;;;5074881;28;20208;-74
2023/03/12 13:02:02;;;;;;;39.83;16.83;;;15.00;1.00;;;;;;5057088;28;20204;-74